Terminal Aerodrome Forecast
Issued by NWS Nashville, TN

Home | Current Version | Previous Version | Text Only | Print | Product List | Glossary On
Versions: 1 2 3 4 5 6 7 8 9 10 11 12 13 14 15 16 17 18 19 20 21 22 23 24 25 26 27 28 29 30 31 32 33 34 35
399
FTUS44 KOHX 180804 AAC
TAFCSV
TAF AMD
KCSV 180804Z 1808/1906 29008KT P6SM BKN010 OVC020
     FM181100 29007KT 5SM BR BKN005 OVC010
     FM181300 30007KT P6SM OVC015
     FM181500 33003KT P6SM OVC025
     FM182200 00000KT P6SM OVC100=

USA.gov is the U.S. government's official web portal to all federal, state and local government web resources and services.